Time;durP1;ratioP1;P1;durP2;ratioP2;P2;SDS_P1;SDS_P2;PMS_P1;PMS_P2;Temp;Humidity;BMP_temperature;BMP_pressure;BME280_temperature;BME280_humidity;BME280_pressure;Samples;Min_cycle;Max_cycle;Signal;HPM_P1;HPM_P2
2023/06/03 00:00:59;;;;;;;;;;;;;;;16.48;36.13;101990.97;7353269;19;19923;-56
2023/06/03 00:03:24;;;;;;;;;;;;;;;16.43;36.35;101990.25;7353207;19;19926;-56
2023/06/03 00:05:49;;;;;;;;;;;;;;;16.37;36.29;101988.59;7355225;19;19941;-57
2023/06/03 00:08:15;;;;;;;;;;;;;;;16.31;36.26;101980.84;7354523;19;19925;-56
2023/06/03 00:10:40;;;;;;;;;;;;;;;16.26;36.52;101986.25;7354959;19;19946;-56
2023/06/03 00:13:05;;;;;;;;;;;;;;;16.22;36.58;101983.72;7351586;19;19919;-55
2023/06/03 00:15:31;;;;;;;;;;;;;;;16.16;36.55;101990.03;7352534;19;19933;-56
2023/06/03 00:17:56;;;;;;;;;;;;;;;16.12;36.50;101983.13;7352653;19;19933;-56
2023/06/03 00:20:21;;;;;;;;;;;;;;;16.07;36.44;101979.75;7353534;19;19927;-56
2023/06/03 00:22:47;;;;;;;;;;;;;;;16.01;36.57;101980.72;7353276;19;19932;-56
2023/06/03 00:25:12;;;;;;;;;;;;;;;15.95;36.69;101980.03;7354318;19;19911;-55
2023/06/03 00:27:38;;;;;;;;;;;;;;;15.91;36.79;101978.34;7354373;19;19953;-56
2023/06/03 00:30:05;;;;;;;;;;;;;;;15.86;36.60;101977.59;7349505;19;19922;-56
2023/06/03 00:32:30;;;;;;;;;;;;;;;15.80;36.75;101976.84;7353777;19;19919;-56
2023/06/03 00:34:56;;;;;;;;;;;;;;;15.76;36.77;101972.59;7353975;19;19946;-56
2023/06/03 00:37:21;;;;;;;;;;;;;;;15.70;36.78;101969.22;7354159;19;19923;-56
2023/06/03 00:39:46;;;;;;;;;;;;;;;15.65;36.68;101971.94;7352171;19;19911;-56
2023/06/03 00:42:12;;;;;;;;;;;;;;;15.60;36.82;101971.16;7354194;19;20344;-57
2023/06/03 00:44:37;;;;;;;;;;;;;;;15.55;37.02;101973.03;7355536;19;19961;-56
2023/06/03 00:47:03;;;;;;;;;;;;;;;15.52;37.05;101975.75;7354235;19;20579;-56
2023/06/03 00:49:29;;;;;;;;;;;;;;;15.46;37.05;101975.88;7353148;19;19931;-56
2023/06/03 00:51:55;;;;;;;;;;;;;;;15.41;37.21;101983.91;7351202;19;19919;-56
2023/06/03 00:54:20;;;;;;;;;;;;;;;15.36;37.07;101977.88;7355493;19;19926;-56
2023/06/03 00:56:46;;;;;;;;;;;;;;;15.31;37.15;101972.72;7350371;19;19922;-56
2023/06/03 00:59:15;;;;;;;;;;;;;;;15.26;37.38;101974.56;7349484;19;19915;-56
2023/06/03 01:01:42;;;;;;;;;;;;;;;15.22;37.61;101978.16;7350646;19;19929;-56
2023/06/03 01:04:08;;;;;;;;;;;;;;;15.19;37.71;101983.47;7353728;19;19923;-56
2023/06/03 01:06:36;;;;;;;;;;;;;;;15.15;37.48;101980.94;7348757;19;20633;-56
2023/06/03 01:09:06;;;;;;;;;;;;;;;15.11;37.58;101979.31;7352221;19;19934;-55
2023/06/03 01:11:49;;;;;;;;;;;;;;;15.07;37.58;101983.75;7349845;19;19911;-56
2023/06/03 01:14:16;;;;;;;;;;;;;;;15.00;37.61;101977.75;7352929;19;20385;-55
2023/06/03 01:16:44;;;;;;;;;;;;;;;14.98;37.74;101976.03;7349941;19;20483;-55
2023/06/03 01:19:34;;;;;;;;;;;;;;;14.94;37.81;101977.00;7352994;19;19939;-56
2023/06/03 01:22:02;;;;;;;;;;;;;;;14.90;38.10;101983.22;7251957;19;2004911;-55
2023/06/03 01:24:30;;;;;;;;;;;;;;;14.86;37.80;101978.94;7353970;19;19962;-55
2023/06/03 01:26:56;;;;;;;;;;;;;;;14.82;37.85;101983.38;7350103;19;20008;-56
2023/06/03 01:29:21;;;;;;;;;;;;;;;14.78;37.97;101979.94;7349973;19;19982;-55
2023/06/03 01:31:47;;;;;;;;;;;;;;;14.74;37.96;101980.88;7351753;19;19936;-56
2023/06/03 01:34:13;;;;;;;;;;;;;;;14.70;38.13;101984.50;7357538;19;20284;-56
2023/06/03 01:36:38;;;;;;;;;;;;;;;14.65;37.84;101981.09;7362418;19;20377;-57
2023/06/03 01:39:04;;;;;;;;;;;;;;;14.62;38.15;101975.88;7366924;19;19918;-55
2023/06/03 01:41:31;;;;;;;;;;;;;;;14.59;38.47;101982.94;7368464;19;19931;-57
2023/06/03 01:43:57;;;;;;;;;;;;;;;14.55;38.16;101984.78;7368752;19;19934;-56
2023/06/03 01:46:22;;;;;;;;;;;;;;;14.50;38.48;101982.25;7364519;19;19922;-54
2023/06/03 01:48:49;;;;;;;;;;;;;;;14.48;38.22;101984.00;7371993;19;19915;-55
2023/06/03 01:51:14;;;;;;;;;;;;;;;14.45;38.63;101975.31;7363805;19;19919;-56
2023/06/03 01:53:40;;;;;;;;;;;;;;;14.42;38.67;101983.25;7369338;19;20435;-56
2023/06/03 01:56:05;;;;;;;;;;;;;;;14.39;38.73;101973.63;7366853;19;20045;-57
2023/06/03 01:58:30;;;;;;;;;;;;;;;14.36;38.70;101972.84;7356691;19;19923;-55
2023/06/03 02:00:56;;;;;;;;;;;;;;;14.33;38.80;101971.13;7364938;19;19935;-56
2023/06/03 02:03:21;;;;;;;;;;;;;;;14.31;38.86;101970.28;7361911;19;19918;-56
2023/06/03 02:05:47;;;;;;;;;;;;;;;14.27;38.82;101968.59;7365169;19;19943;-55
2023/06/03 02:08:12;;;;;;;;;;;;;;;14.24;39.03;101974.81;7366503;19;19978;-56
2023/06/03 02:10:37;;;;;;;;;;;;;;;14.21;38.79;101969.59;7366032;19;20910;-56
2023/06/03 02:13:02;;;;;;;;;;;;;;;14.18;38.78;101980.13;7363270;19;19998;-56
2023/06/03 02:15:28;;;;;;;;;;;;;;;14.16;39.18;101976.69;7361322;19;19918;-56
2023/06/03 02:17:55;;;;;;;;;;;;;;;14.13;38.79;101976.72;7365054;19;20675;-57
2023/06/03 02:20:22;;;;;;;;;;;;;;;14.10;38.98;101971.53;7361690;19;19910;-56
2023/06/03 02:22:47;;;;;;;;;;;;;;;14.07;38.92;101970.72;7364707;19;19915;-56
2023/06/03 02:25:13;;;;;;;;;;;;;;;14.04;39.03;101971.66;7365894;19;19926;-55
2023/06/03 02:27:38;;;;;;;;;;;;;;;14.02;38.83;101969.03;7362282;19;20587;-56
2023/06/03 02:30:04;;;;;;;;;;;;;;;13.99;39.18;101979.59;7363501;19;19931;-55
2023/06/03 02:32:30;;;;;;;;;;;;;;;13.97;39.38;101975.25;7358969;19;19923;-56
2023/06/03 02:34:55;;;;;;;;;;;;;;;13.95;39.39;101984.94;7365852;19;19915;-56
2023/06/03 02:37:20;;;;;;;;;;;;;;;13.93;39.51;101986.69;7364445;19;19922;-56
2023/06/03 02:39:46;;;;;;;;;;;;;;;13.91;39.45;101985.84;7365478;19;19915;-56
2023/06/03 02:42:11;;;;;;;;;;;;;;;13.89;39.46;101990.25;7366919;19;19923;-56
2023/06/03 02:44:37;;;;;;;;;;;;;;;13.86;39.42;101987.69;7359271;19;20364;-56
2023/06/03 02:47:02;;;;;;;;;;;;;;;13.83;39.64;101982.47;7357533;19;19952;-56
2023/06/03 02:49:27;;;;;;;;;;;;;;;13.81;39.37;101981.66;7355143;19;20320;-55
2023/06/03 02:51:53;;;;;;;;;;;;;;;13.79;39.29;101986.94;7359472;19;19938;-56
2023/06/03 02:54:18;;;;;;;;;;;;;;;13.75;39.45;101980.84;7354198;19;20264;-55
2023/06/03 02:56:44;;;;;;;;;;;;;;;13.74;39.66;101975.63;7345990;19;19917;-56
2023/06/03 02:59:10;;;;;;;;;;;;;;;13.69;39.76;101970.44;7344761;19;20699;-55
2023/06/03 03:01:35;;;;;;;;;;;;;;;13.67;39.55;101972.22;7359585;19;19929;-56
2023/06/03 03:04:01;;;;;;;;;;;;;;;13.63;39.10;101975.75;7358394;19;19923;-56
2023/06/03 03:06:26;;;;;;;;;;;;;;;13.60;39.89;101974.97;7356417;19;19922;-56
2023/06/03 03:08:52;;;;;;;;;;;;;;;13.56;39.77;101983.78;7360004;19;19918;-56
2023/06/03 03:11:17;;;;;;;;;;;;;;;13.52;39.83;101967.19;7340702;19;19970;-56
2023/06/03 03:13:43;;;;;;;;;;;;;;;13.49;39.87;101969.88;7358187;19;19923;-56
2023/06/03 03:16:09;;;;;;;;;;;;;;;13.45;39.59;101970.81;7358387;19;20454;-55
2023/06/03 03:18:35;;;;;;;;;;;;;;;13.41;39.98;101969.09;7357257;19;19926;-55
2023/06/03 03:21:00;;;;;;;;;;;;;;;13.38;39.61;101971.75;7358550;19;19929;-56
2023/06/03 03:23:27;;;;;;;;;;;;;;;13.35;39.89;101963.97;7356720;19;20236;-56
2023/06/03 03:25:52;;;;;;;;;;;;;;;13.32;39.98;101971.84;7362640;19;19922;-56
2023/06/03 03:28:18;;;;;;;;;;;;;;;13.29;39.99;101961.41;7356199;19;20651;-55
2023/06/03 03:30:44;;;;;;;;;;;;;;;13.27;39.99;101971.06;7358903;19;19974;-54
2023/06/03 03:33:10;;;;;;;;;;;;;;;12.89;39.99;101910.34;7357679;19;19922;-56
2023/06/03 03:35:40;;;;;;;;;;;;;;;13.21;39.95;101962.38;7359299;19;19919;-55
2023/06/03 03:38:06;;;;;;;;;;;;;;;13.18;40.18;101966.78;7352480;19;19940;-56
2023/06/03 03:40:32;;;;;;;;;;;;;;;13.15;39.59;101970.31;7356735;19;20266;-55
2023/06/03 03:42:59;;;;;;;;;;;;;;;12.86;40.01;101917.34;7359330;19;19915;-56
2023/06/03 03:45:33;;;;;;;;;;;;;;;13.10;40.11;101969.50;7354006;19;19935;-55
2023/06/03 03:48:02;;;;;;;;;;;;;;;13.06;40.31;101966.91;7353262;19;19927;-56
2023/06/03 03:50:27;;;;;;;;;;;;;;;13.05;40.05;101973.94;7358285;19;19956;-56
2023/06/03 03:52:53;;;;;;;;;;;;;;;13.02;40.29;101971.31;7357649;19;19915;-55
2023/06/03 03:55:20;;;;;;;;;;;;;;;13.00;40.38;101970.50;7357777;19;20006;-56
2023/06/03 03:57:45;;;;;;;;;;;;;;;12.97;40.34;101966.13;7355133;19;19921;-56
2023/06/03 04:00:11;;;;;;;;;;;;;;;12.96;40.37;101966.16;7356024;19;19918;-55
2023/06/03 04:02:41;;;;;;;;;;;;;;;12.93;40.28;101969.72;7356135;19;19919;-57
2023/06/03 04:05:06;;;;;;;;;;;;;;;12.92;40.43;101964.47;7354470;19;20045;-56
2023/06/03 04:07:35;;;;;;;;;;;;;;;12.91;40.68;101966.22;7359942;19;20630;-55
2023/06/03 04:10:00;;;;;;;;;;;;;;;12.88;40.61;101962.78;7356437;19;19915;-55
2023/06/03 04:12:32;;;;;;;;;;;;;;;12.86;40.81;101965.41;7358982;19;19931;-55
2023/06/03 04:14:57;;;;;;;;;;;;;;;12.85;40.78;101970.69;7356545;19;19911;-55
2023/06/03 04:17:25;;;;;;;;;;;;;;;12.83;40.56;101973.31;7357079;19;20381;-55
2023/06/03 04:19:50;;;;;;;;;;;;;;;12.80;40.74;101967.25;7352312;19;19923;-54
2023/06/03 04:22:20;;;;;;;;;;;;;;;12.79;40.87;101968.13;7357189;19;20485;-54
2023/06/03 04:24:46;;;;;;;;;;;;;;;12.77;40.66;101959.41;7357959;19;19911;-56
2023/06/03 04:27:12;;;;;;;;;;;;;;;12.75;40.61;101963.81;7357309;19;20431;-56
2023/06/03 04:29:38;;;;;;;;;;;;;;;12.74;41.18;101973.44;7354826;19;20482;-55
2023/06/03 04:32:04;;;;;;;;;;;;;;;12.71;40.86;101966.44;7358483;19;19926;-55
2023/06/03 04:34:30;;;;;;;;;;;;;;;12.71;40.63;101971.69;7353804;19;19961;-55
2023/06/03 04:36:55;;;;;;;;;;;;;;;12.69;40.88;101965.63;7358883;19;19939;-55
2023/06/03 04:39:20;;;;;;;;;;;;;;;12.69;40.88;101968.25;7354168;19;19935;-55
2023/06/03 04:41:46;;;;;;;;;;;;;;;12.69;40.86;101970.84;7358270;19;19928;-55
2023/06/03 04:44:13;;;;;;;;;;;;;;;12.67;40.83;101963.88;7354168;19;20011;-55
2023/06/03 04:46:39;;;;;;;;;;;;;;;12.67;40.57;101958.63;7358178;19;19934;-55
2023/06/03 04:49:08;;;;;;;;;;;;;;;12.64;40.72;101964.78;7357859;19;19970;-54
2023/06/03 04:51:33;;;;;;;;;;;;;;;12.65;41.12;101968.28;7354585;19;19931;-55
2023/06/03 04:53:59;;;;;;;;;;;;;;;12.64;41.20;101970.03;7355962;19;19998;-55
2023/06/03 04:56:24;;;;;;;;;;;;;;;12.64;41.06;101964.78;7354784;19;19927;-55
2023/06/03 04:58:56;;;;;;;;;;;;;;;12.64;41.25;101967.41;7358600;19;19923;-56
2023/06/03 05:01:25;;;;;;;;;;;;;;;12.66;41.12;101963.00;7354617;19;19959;-53
2023/06/03 05:03:53;;;;;;;;;;;;;;;12.66;41.36;101963.00;7349675;19;19938;-55
2023/06/03 05:06:19;;;;;;;;;;;;;;;12.68;41.57;101970.88;7354774;19;19922;-54
2023/06/03 05:08:44;;;;;;;;;;;;;;;12.69;41.61;101968.25;7355659;19;19915;-54
2023/06/03 05:11:11;;;;;;;;;;;;;;;12.71;41.47;101966.44;7354945;19;20566;-56
2023/06/03 05:13:36;;;;;;;;;;;;;;;12.72;41.24;101967.31;7356643;19;19922;-54
2023/06/03 05:16:01;;;;;;;;;;;;;;;12.76;41.10;101968.16;7353257;19;19923;-56
2023/06/03 05:18:27;;;;;;;;;;;;;;;12.78;41.18;101967.28;7358139;19;19979;-56
2023/06/03 05:20:52;;;;;;;;;;;;;;;12.80;41.42;101975.97;7348243;19;20332;-55
2023/06/03 05:23:17;;;;;;;;;;;;;;;12.83;41.66;101969.84;7357326;19;19918;-55
2023/06/03 05:25:42;;;;;;;;;;;;;;;12.86;41.58;101972.41;7356079;19;19996;-56
2023/06/03 05:28:08;;;;;;;;;;;;;;;12.61;41.24;101922.88;7356005;19;20466;-56
2023/06/03 05:30:33;;;;;;;;;;;;;;;12.91;41.23;101967.97;7355919;19;19918;-54
2023/06/03 05:32:58;;;;;;;;;;;;;;;12.93;41.22;101959.22;7357205;19;20481;-54
2023/06/03 05:35:23;;;;;;;;;;;;;;;12.98;41.27;101964.41;7351802;19;19923;-55
2023/06/03 05:37:49;;;;;;;;;;;;;;;13.00;41.21;101970.50;7355123;19;19919;-55
2023/06/03 05:40:14;;;;;;;;;;;;;;;13.04;41.30;101972.19;7354982;19;19922;-54
2023/06/03 05:42:39;;;;;;;;;;;;;;;13.08;41.15;101976.53;7353116;19;19915;-54
2023/06/03 05:45:05;;;;;;;;;;;;;;;13.13;41.49;101977.34;7351431;19;19919;-55
2023/06/03 05:47:30;;;;;;;;;;;;;;;13.16;41.31;101974.66;7356515;19;19961;-55
2023/06/03 05:49:56;;;;;;;;;;;;;;;13.21;41.33;101977.22;7354865;19;19915;-55
2023/06/03 05:52:21;;;;;;;;;;;;;;;13.26;41.12;101979.81;7354744;19;19911;-56
2023/06/03 05:54:46;;;;;;;;;;;;;;;13.31;41.18;101978.00;7353004;19;19965;-55
2023/06/03 05:57:11;;;;;;;;;;;;;;;13.36;41.23;101981.41;7356292;19;19923;-54
2023/06/03 05:59:37;;;;;;;;;;;;;;;13.41;40.85;101984.84;7342251;19;20452;-55
2023/06/03 06:02:02;;;;;;;;;;;;;;;13.45;40.64;101982.16;7352100;19;20429;-55
2023/06/03 06:04:27;;;;;;;;;;;;;;;13.52;41.16;101982.06;7351958;19;19935;-55
2023/06/03 06:06:53;;;;;;;;;;;;;;;13.57;40.88;101980.25;7348732;19;19913;-54
2023/06/03 06:09:18;;;;;;;;;;;;;;;13.63;40.94;101975.75;7350000;19;20376;-56
2023/06/03 06:11:43;;;;;;;;;;;;;;;13.34;41.21;101925.50;7351387;19;19922;-56
2023/06/03 06:14:10;;;;;;;;;;;;;;;13.74;40.80;101981.75;7349286;19;19939;-54
2023/06/03 06:16:35;;;;;;;;;;;;;;;13.81;40.67;101979.03;7352026;19;19922;-55
2023/06/03 06:19:00;;;;;;;;;;;;;;;13.87;41.14;101987.66;7348061;19;20523;-54
2023/06/03 06:21:25;;;;;;;;;;;;;;;13.93;40.98;101990.19;7348637;19;19926;-56
2023/06/03 06:23:51;;;;;;;;;;;;;;;13.99;41.13;101973.47;7359118;19;19937;-56
2023/06/03 06:26:16;;;;;;;;;;;;;;;14.08;40.95;101988.19;7358777;19;20675;-55
2023/06/03 06:28:42;;;;;;;;;;;;;;;14.14;41.15;101982.84;7358917;19;19922;-56
2023/06/03 06:31:08;;;;;;;;;;;;;;;14.20;41.14;101988.88;7354683;19;21989;-55
2023/06/03 06:33:34;;;;;;;;;;;;;;;14.27;41.56;101982.59;7353009;19;19953;-55
2023/06/03 06:36:03;;;;;;;;;;;;;;;14.35;41.20;101981.63;7351042;19;19922;-56
2023/06/03 06:38:29;;;;;;;;;;;;;;;14.42;41.84;101981.47;7354873;19;19921;-56
2023/06/03 06:40:54;;;;;;;;;;;;;;;14.50;41.80;101994.53;7353038;19;19922;-56
2023/06/03 06:43:25;;;;;;;;;;;;;;;14.57;41.91;101993.50;7357304;19;19923;-56
2023/06/03 06:45:50;;;;;;;;;;;;;;;14.65;41.85;101994.22;7358693;19;19950;-54
2023/06/03 06:48:16;;;;;;;;;;;;;;;14.73;42.10;101989.69;7356520;19;19953;-55
2023/06/03 06:50:48;;;;;;;;;;;;;;;14.81;41.97;101991.31;7358275;19;19914;-56
2023/06/03 06:53:15;;;;;;;;;;;;;;;14.88;42.29;101993.78;7355162;19;19914;-56
2023/06/03 06:55:54;;;;;;;;;;;;;;;14.95;42.32;101989.25;7358829;19;19935;-55
2023/06/03 06:58:19;;;;;;;;;;;;;;;15.02;42.22;101991.72;7355115;19;19925;-56
2023/06/03 07:00:46;;;;;;;;;;;;;;;15.11;42.42;101990.69;7360149;19;20848;-56
2023/06/03 07:03:18;;;;;;;;;;;;;;;15.17;42.18;101990.56;7356091;19;19930;-56
2023/06/03 07:05:45;;;;;;;;;;;;;;;15.25;42.38;101993.00;7356809;19;19922;-56
2023/06/03 07:08:10;;;;;;;;;;;;;;;15.32;42.40;101989.38;7354586;19;19918;-55
2023/06/03 07:10:35;;;;;;;;;;;;;;;15.39;42.43;101993.56;7358214;19;19941;-55
2023/06/03 07:13:02;;;;;;;;;;;;;;;15.46;42.73;101996.94;7353014;19;19918;-57
2023/06/03 07:15:27;;;;;;;;;;;;;;;15.52;42.71;101992.41;7358329;19;19926;-56
2023/06/03 07:17:53;;;;;;;;;;;;;;;15.59;42.92;101998.41;7352682;19;19921;-56
2023/06/03 07:20:20;;;;;;;;;;;;;;;15.66;43.04;101993.88;7356801;19;19918;-56
2023/06/03 07:22:45;;;;;;;;;;;;;;;15.71;42.83;101990.28;7352946;19;20001;-56
2023/06/03 07:25:16;;;;;;;;;;;;;;;15.78;43.31;101997.09;7357212;19;19994;-56
2023/06/03 07:27:43;;;;;;;;;;;;;;;15.85;42.91;101996.97;7354611;19;19926;-55
2023/06/03 07:30:13;;;;;;;;;;;;;;;15.90;42.99;101998.56;7356346;19;19943;-55
2023/06/03 07:32:39;;;;;;;;;;;;;;;15.96;42.82;101998.41;7351800;19;20455;-57
2023/06/03 07:35:05;;;;;;;;;;;;;;;16.02;43.38;101992.16;7356793;19;19933;-56
2023/06/03 07:37:30;;;;;;;;;;;;;;;16.09;43.43;101993.72;7351300;19;19927;-56
2023/06/03 07:39:55;;;;;;;;;;;;;;;16.15;43.06;101998.84;7351960;19;19919;-54
2023/06/03 07:42:21;;;;;;;;;;;;;;;15.89;42.40;101940.66;7354668;19;19919;-56
2023/06/03 07:44:47;;;;;;;;;;;;;;;16.26;42.96;102002.06;7349306;19;19911;-56
2023/06/03 07:47:14;;;;;;;;;;;;;;;16.33;43.37;101997.50;7357061;19;20257;-56
2023/06/03 07:49:39;;;;;;;;;;;;;;;16.40;43.60;102003.50;7353597;19;19918;-56
2023/06/03 07:52:05;;;;;;;;;;;;;;;16.45;43.50;102006.88;7357784;19;20962;-56
2023/06/03 07:54:33;;;;;;;;;;;;;;;16.51;43.75;102011.97;7353217;19;19914;-56
2023/06/03 07:56:58;;;;;;;;;;;;;;;16.57;43.50;102010.06;7356838;19;19934;-56
2023/06/03 07:59:24;;;;;;;;;;;;;;;16.64;43.90;102013.38;7349099;19;20849;-56
2023/06/03 08:01:51;;;;;;;;;;;;;;;16.70;43.66;102007.94;7359167;19;19929;-56
2023/06/03 08:04:19;;;;;;;;;;;;;;;16.76;43.69;102017.50;7352620;19;20271;-56
2023/06/03 08:06:45;;;;;;;;;;;;;;;16.82;43.44;102007.63;7333551;19;19938;-57
2023/06/03 08:09:18;;;;;;;;;;;;;;;16.89;43.82;102016.25;7358525;19;19925;-56
2023/06/03 08:11:43;;;;;;;;;;;;;;;16.96;43.65;102014.28;7349953;19;21040;-56
2023/06/03 08:14:09;;;;;;;;;;;;;;;17.02;44.16;102012.34;7356388;19;19926;-56
2023/06/03 08:16:35;;;;;;;;;;;;;;;17.07;44.36;102013.06;7355536;19;19914;-56
2023/06/03 08:19:01;;;;;;;;;;;;;;;17.14;44.33;102021.69;7355101;19;20478;-56
2023/06/03 08:21:30;;;;;;;;;;;;;;;17.20;43.60;102024.16;7354640;19;19952;-57
2023/06/03 08:23:55;;;;;;;;;;;;;;;17.26;43.90;102021.34;7353004;19;19927;-57
2023/06/03 08:26:21;;;;;;;;;;;;;;;17.31;43.76;102016.78;7356842;19;19928;-56
2023/06/03 08:28:46;;;;;;;;;;;;;;;17.38;43.99;102015.66;7354044;19;21255;-56
2023/06/03 08:31:13;;;;;;;;;;;;;;;17.44;44.11;102011.16;7357893;19;20583;-56
2023/06/03 08:33:38;;;;;;;;;;;;;;;17.48;43.37;102013.63;7353770;19;20344;-57
2023/06/03 08:36:03;;;;;;;;;;;;;;;17.54;44.17;102013.47;7357632;19;19931;-56
2023/06/03 08:38:29;;;;;;;;;;;;;;;17.59;43.98;102016.81;7351145;19;19923;-57
2023/06/03 08:40:54;;;;;;;;;;;;;;;17.67;44.12;102013.94;7352427;19;19923;-57
2023/06/03 08:43:21;;;;;;;;;;;;;;;17.71;44.02;102015.56;7348495;19;19930;-57
2023/06/03 08:45:55;;;;;;;;;;;;;;;17.76;44.54;102024.25;7351673;19;20435;-56
2023/06/03 08:48:39;;;;;;;;;;;;;;;17.82;44.16;102023.19;7355343;19;19930;-56
2023/06/03 08:51:05;;;;;;;;;;;;;;;17.88;44.34;102025.63;7354259;19;19931;-56
2023/06/03 08:53:50;;;;;;;;;;;;;;;17.94;44.38;102013.97;7347277;19;19937;-56
2023/06/03 08:56:17;;;;;;;;;;;;;;;18.00;44.32;102013.81;7355675;19;20284;-56
2023/06/03 08:58:46;;;;;;;;;;;;;;;18.06;44.43;102021.53;7346223;19;19939;-57
2023/06/03 09:01:12;;;;;;;;;;;;;;;18.12;43.99;102016.03;7353800;19;19911;-57
2023/06/03 09:03:38;;;;;;;;;;;;;;;18.18;44.54;102017.59;7348496;19;19919;-56
2023/06/03 09:06:04;;;;;;;;;;;;;;;18.23;44.06;102007.75;7353109;19;19942;-56
2023/06/03 09:08:31;;;;;;;;;;;;;;;18.29;44.28;102013.69;7354402;19;19922;-56
2023/06/03 09:10:57;;;;;;;;;;;;;;;18.35;44.48;102021.44;7349663;19;19915;-56
2023/06/03 09:13:23;;;;;;;;;;;;;;;18.41;44.65;102012.41;7348081;19;19930;-56
2023/06/03 09:15:50;;;;;;;;;;;;;;;18.47;44.22;102011.34;7352499;19;19922;-56
2023/06/03 09:18:18;;;;;;;;;;;;;;;18.53;44.05;102001.41;7351667;19;19994;-56
2023/06/03 09:20:44;;;;;;;;;;;;;;;18.59;44.55;102005.59;7345734;19;19930;-60
2023/06/03 09:23:11;;;;;;;;;;;;;;;18.65;44.05;102010.66;7353940;19;19953;-60
2023/06/03 09:25:36;;;;;;;;;;;;;;;18.73;43.61;102008.66;7354436;19;19927;-60
2023/06/03 09:28:01;;;;;;;;;;;;;;;18.87;44.04;102006.38;7352329;19;19934;-60
2023/06/03 09:30:32;;;;;;;;;;;;;;;19.08;43.80;102009.16;7354925;19;19918;-60
2023/06/03 09:32:57;;;;;;;;;;;;;;;19.32;44.07;102007.38;7340816;19;19953;-61
2023/06/03 09:35:22;;;;;;;;;;;;;;;19.58;44.06;102003.72;7350462;19;19927;-60
2023/06/03 09:37:58;;;;;;;;;;;;;;;19.86;44.05;102007.00;7349604;19;20174;-59
2023/06/03 09:40:24;;;;;;;;;;;;;;;20.19;43.80;102001.22;7331156;19;19911;-61
2023/06/03 09:42:50;;;;;;;;;;;;;;;20.50;43.67;102005.25;7353832;19;20492;-60
2023/06/03 09:45:27;;;;;;;;;;;;;;;20.82;43.25;102002.03;7349085;19;20096;-61
2023/06/03 09:47:53;;;;;;;;;;;;;;;21.17;42.67;102008.38;7350158;19;19927;-61
2023/06/03 09:50:19;;;;;;;;;;;;;;;21.49;42.90;101998.97;7352471;19;19926;-61
2023/06/03 09:52:45;;;;;;;;;;;;;;;21.84;42.51;102004.34;7353165;19;19923;-61
2023/06/03 09:55:10;;;;;;;;;;;;;;;22.17;41.91;102000.97;7353074;19;20034;-61
2023/06/03 09:57:36;;;;;;;;;;;;;;;22.52;41.72;102001.84;7357325;19;19925;-61
2023/06/03 10:00:07;;;;;;;;;;;;;;;22.85;41.70;101998.31;7361388;19;19975;-61
2023/06/03 10:02:33;;;;;;;;;;;;;;;23.22;41.57;102010.56;7354613;19;20455;-61
2023/06/03 10:05:00;;;;;;;;;;;;;;;23.56;41.00;102006.84;7359394;19;20289;-61
2023/06/03 10:07:26;;;;;;;;;;;;;;;23.89;40.48;102006.78;7339665;19;19998;-60
2023/06/03 10:10:02;;;;;;;;;;;;;;;24.20;40.09;102002.28;7356265;19;20456;-61
2023/06/03 10:12:28;;;;;;;;;;;;;;;24.52;39.78;101995.91;7355179;19;19930;-60
2023/06/03 10:14:55;;;;;;;;;;;;;;;24.83;39.77;101996.69;7357875;19;19923;-61
2023/06/03 10:17:20;;;;;;;;;;;;;;;25.18;39.83;102007.00;7356930;19;19930;-61
2023/06/03 10:19:46;;;;;;;;;;;;;;;25.54;39.47;102009.13;7355810;19;19918;-61
2023/06/03 10:22:16;;;;;;;;;;;;;;;25.86;38.50;102017.78;7358094;19;19914;-61
2023/06/03 10:24:42;;;;;;;;;;;;;;;26.20;38.19;102013.66;7361271;19;19922;-61
2023/06/03 10:27:08;;;;;;;;;;;;;;;26.54;38.17;102019.44;7339758;19;19937;-61
2023/06/03 10:29:34;;;;;;;;;;;;;;;26.82;38.12;102021.94;7358676;19;20496;-61
2023/06/03 10:32:01;;;;;;;;;;;;;;;27.11;37.52;102017.19;7356810;19;20020;-61
2023/06/03 10:34:30;;;;;;;;;;;;;;;27.41;36.55;102018.63;7359810;19;19926;-61
2023/06/03 10:37:01;;;;;;;;;;;;;;;27.73;36.31;102012.72;7359930;19;20328;-61
2023/06/03 10:39:27;;;;;;;;;;;;;;;28.07;36.41;102019.13;7361266;19;19922;-61
2023/06/03 10:41:54;;;;;;;;;;;;;;;28.42;36.45;102021.81;7360359;19;20378;-61
2023/06/03 10:44:19;;;;;;;;;;;;;;;28.73;35.56;102011.34;7360104;19;19923;-61
2023/06/03 10:46:48;;;;;;;;;;;;;;;29.04;35.37;102013.34;7361090;19;20224;-61
2023/06/03 10:49:14;;;;;;;;;;;;;;;29.35;34.41;102013.56;7361420;19;19926;-61
2023/06/03 10:51:42;;;;;;;;;;;;;;;29.67;35.19;102019.88;7359335;19;20668;-61
2023/06/03 10:54:07;;;;;;;;;;;;;;;30.01;34.17;102021.59;7359889;19;19923;-62
2023/06/03 10:56:40;;;;;;;;;;;;;;;30.33;34.24;102018.91;7357008;19;19936;-61
2023/06/03 10:59:09;;;;;;;;;;;;;;;30.67;33.70;102014.16;7360319;19;19922;-61
2023/06/03 11:01:53;;;;;;;;;;;;;;;31.00;33.86;102024.69;7357400;19;20018;-61
2023/06/03 11:04:19;;;;;;;;;;;;;;;31.38;34.15;102023.16;7361556;19;20755;-61
2023/06/03 11:06:44;;;;;;;;;;;;;;;31.63;33.22;102026.28;7356590;19;19927;-62
2023/06/03 11:09:12;;;;;;;;;;;;;;;31.89;33.06;102023.97;7358525;19;19937;-61
2023/06/03 11:11:41;;;;;;;;;;;;;;;32.15;32.53;102025.06;7358586;19;21067;-61
2023/06/03 11:14:06;;;;;;;;;;;;;;;32.40;32.29;102030.91;7361174;19;19923;-61
2023/06/03 11:16:50;;;;;;;;;;;;;;;32.65;31.53;102021.31;7357335;19;20603;-61
2023/06/03 11:19:28;;;;;;;;;;;;;;;32.94;31.31;102018.50;7356619;19;20336;-61
2023/06/03 11:21:54;;;;;;;;;;;;;;;33.24;31.58;102018.22;7358493;19;19927;-60
2023/06/03 11:24:37;;;;;;;;;;;;;;;33.53;30.71;102022.63;7360331;19;19935;-61
2023/06/03 11:27:15;;;;;;;;;;;;;;;33.86;30.97;102014.81;7355469;19;19930;-61
2023/06/03 11:29:46;;;;;;;;;;;;;;;34.16;31.14;102010.88;7358561;19;19976;-60
2023/06/03 11:32:15;;;;;;;;;;;;;;;34.43;29.90;102018.88;7359323;19;19922;-61
2023/06/03 11:34:40;;;;;;;;;;;;;;;34.72;29.66;102013.13;7360812;19;19919;-61
2023/06/03 11:37:06;;;;;;;;;;;;;;;35.04;29.12;102017.06;7358035;19;20251;-61
2023/06/03 11:39:50;;;;;;;;;;;;;;;35.36;30.14;102017.16;7353428;19;20347;-61
2023/06/03 11:42:15;;;;;;;;;;;;;;;35.72;28.51;102022.38;7358852;19;19986;-61
2023/06/03 11:44:41;;;;;;;;;;;;;;;36.00;28.93;102020.22;7355602;19;20341;-61
2023/06/03 11:47:07;;;;;;;;;;;;;;;36.30;28.01;102024.09;7358258;19;19915;-62
2023/06/03 11:49:33;;;;;;;;;;;;;;;36.60;28.32;102021.72;7357614;19;19925;-61
2023/06/03 11:51:59;;;;;;;;;;;;;;;36.88;27.83;102020.22;7358049;19;20300;-61
2023/06/03 11:54:25;;;;;;;;;;;;;;;37.14;27.32;102013.69;7358154;19;20757;-61
2023/06/03 11:56:51;;;;;;;;;;;;;;;37.38;28.18;102005.41;7359450;19;19919;-61
2023/06/03 11:59:20;;;;;;;;;;;;;;;37.60;26.75;102016.50;7354043;19;19919;-61
2023/06/03 12:02:05;;;;;;;;;;;;;;;37.80;26.20;102004.09;7355068;19;19962;-61
2023/06/03 12:04:31;;;;;;;;;;;;;;;38.04;25.77;102010.41;7356950;19;19931;-61
2023/06/03 12:06:56;;;;;;;;;;;;;;;38.28;25.88;102006.59;7358482;19;19944;-61
2023/06/03 12:09:23;;;;;;;;;;;;;;;38.54;24.92;102011.66;7354516;19;19947;-61
2023/06/03 12:11:49;;;;;;;;;;;;;;;38.83;25.40;102008.94;7359856;19;19930;-61
2023/06/03 12:14:33;;;;;;;;;;;;;;;39.10;24.78;102007.38;7356947;19;19943;-61
2023/06/03 12:17:15;;;;;;;;;;;;;;;39.39;24.02;102002.91;7359226;19;19922;-61
2023/06/03 12:19:45;;;;;;;;;;;;;;;39.67;23.93;102013.94;7355820;19;19934;-61
2023/06/03 12:22:11;;;;;;;;;;;;;;;39.92;23.28;102007.03;7356214;19;19944;-61
2023/06/03 12:24:39;;;;;;;;;;;;;;;40.14;23.28;102001.53;7356294;19;19915;-62
2023/06/03 12:27:11;;;;;;;;;;;;;;;40.36;23.72;102011.41;7357282;19;20611;-61
2023/06/03 12:29:40;;;;;;;;;;;;;;;40.59;23.72;102011.16;7359329;19;20364;-62
2023/06/03 12:32:06;;;;;;;;;;;;;;;40.78;22.45;102012.31;7355940;19;20730;-61
2023/06/03 12:34:35;;;;;;;;;;;;;;;40.97;22.20;102006.13;7354734;19;19978;-61